createdAt,value
2023-05-14T00:03:57.826Z,0
2023-05-14T00:09:03.934Z,0
2023-05-14T00:14:10.005Z,0
2023-05-14T00:19:16.094Z,0
2023-05-14T00:24:22.245Z,0
2023-05-14T00:29:28.276Z,0
2023-05-14T00:34:34.363Z,0
2023-05-14T00:39:40.461Z,0
2023-05-14T00:44:46.538Z,0
2023-05-14T00:49:52.635Z,0
2023-05-14T00:54:58.722Z,0
2023-05-14T01:00:04.820Z,0
2023-05-14T01:05:10.903Z,0
2023-05-14T01:10:16.990Z,0
2023-05-14T01:15:23.081Z,0
2023-05-14T01:20:29.171Z,0
2023-05-14T01:25:35.280Z,0
2023-05-14T01:30:41.415Z,0
2023-05-14T01:35:47.439Z,0
2023-05-14T01:40:53.542Z,0
2023-05-14T01:45:59.613Z,0
2023-05-14T01:51:05.707Z,0
2023-05-14T01:56:11.789Z,0
2023-05-14T02:01:17.884Z,0
2023-05-14T02:06:24.033Z,0
2023-05-14T02:11:30.186Z,0
2023-05-14T02:16:36.342Z,0
2023-05-14T02:21:42.484Z,0
2023-05-14T02:26:48.644Z,0
2023-05-14T02:31:54.894Z,0
2023-05-14T02:37:00.956Z,0
2023-05-14T02:42:07.096Z,0
2023-05-14T02:47:13.257Z,0
2023-05-14T02:52:19.427Z,0
2023-05-14T02:57:25.553Z,0
2023-05-14T03:02:31.710Z,0
2023-05-14T03:07:37.866Z,0
2023-05-14T03:12:44.125Z,0
2023-05-14T03:17:50.410Z,0
2023-05-14T03:22:56.658Z,0
2023-05-14T03:28:02.917Z,4
2023-05-14T03:33:09.183Z,4
2023-05-14T03:38:15.457Z,4
2023-05-14T03:43:21.714Z,8
2023-05-14T03:48:27.983Z,8
2023-05-14T03:53:34.242Z,16
2023-05-14T03:58:40.512Z,16
2023-05-14T04:03:46.772Z,16
2023-05-14T04:08:53.037Z,16
2023-05-14T04:13:59.302Z,20
2023-05-14T04:19:05.775Z,20
2023-05-14T04:24:12.250Z,24
2023-05-14T04:29:18.716Z,28
2023-05-14T04:34:25.200Z,28
2023-05-14T04:39:31.671Z,32
2023-05-14T04:44:38.129Z,36
2023-05-14T04:49:44.591Z,36
2023-05-14T04:54:51.089Z,40
2023-05-14T04:59:56.465Z,40
2023-05-14T05:05:02.559Z,40
2023-05-14T05:10:08.648Z,40
2023-05-14T05:15:14.750Z,40
2023-05-14T05:20:20.826Z,40
2023-05-14T05:25:26.965Z,32
2023-05-14T05:30:33.031Z,36
2023-05-14T05:35:39.098Z,44
2023-05-14T05:40:45.190Z,48
2023-05-14T05:45:51.282Z,48
2023-05-14T05:50:57.399Z,68
2023-05-14T05:56:03.458Z,48
2023-05-14T06:01:09.551Z,60
2023-05-14T06:06:15.647Z,52
2023-05-14T06:11:21.722Z,64
2023-05-14T06:16:27.820Z,60
2023-05-14T06:21:33.905Z,80
2023-05-14T06:26:39.991Z,68
2023-05-14T06:31:46.087Z,76
2023-05-14T06:36:52.180Z,88
2023-05-14T06:41:58.271Z,96
2023-05-14T06:47:04.357Z,100
2023-05-14T06:52:10.459Z,96
2023-05-14T06:57:16.564Z,96
2023-05-14T07:02:22.673Z,96
2023-05-14T07:07:28.789Z,108
2023-05-14T07:12:34.947Z,120
2023-05-14T07:17:41.080Z,108
2023-05-14T07:22:47.229Z,120
2023-05-14T07:27:53.397Z,124
2023-05-14T07:32:59.531Z,112
2023-05-14T07:38:05.705Z,124
2023-05-14T07:43:11.851Z,140
2023-05-14T07:48:18.000Z,156
2023-05-14T07:53:24.130Z,156
2023-05-14T07:58:30.304Z,144
2023-05-14T08:03:36.443Z,152
2023-05-14T08:08:42.604Z,156
2023-05-14T08:13:48.863Z,168
2023-05-14T08:18:55.150Z,184
2023-05-14T08:24:01.397Z,172
2023-05-14T08:29:07.669Z,176
2023-05-14T08:34:13.987Z,168
2023-05-14T08:39:20.188Z,192
2023-05-14T08:44:26.473Z,164
2023-05-14T08:49:32.741Z,132
2023-05-14T08:54:38.983Z,172
2023-05-14T08:59:45.255Z,172
2023-05-14T09:04:51.503Z,180
2023-05-14T09:09:57.786Z,184
2023-05-14T09:15:04.036Z,176
2023-05-14T09:20:10.532Z,140
2023-05-14T09:25:16.991Z,164
2023-05-14T09:30:23.463Z,140
2023-05-14T09:35:29.924Z,128
2023-05-14T09:40:36.389Z,144
2023-05-14T09:45:42.980Z,152
2023-05-14T09:50:49.339Z,128
2023-05-14T09:55:55.820Z,188
2023-05-14T10:01:02.289Z,168
2023-05-14T10:06:08.750Z,192
2023-05-14T10:11:15.229Z,116
2023-05-14T10:16:21.683Z,64
2023-05-14T10:21:28.163Z,92
2023-05-14T10:26:35.180Z,72
2023-05-14T10:31:42.180Z,32
2023-05-14T10:36:49.192Z,32
2023-05-14T10:41:56.192Z,68
2023-05-14T10:47:03.190Z,56
2023-05-14T10:52:10.194Z,44
2023-05-14T10:57:17.203Z,52
2023-05-14T11:02:24.225Z,72
2023-05-14T11:07:31.211Z,80
2023-05-14T11:12:38.216Z,88
2023-05-14T11:17:43.961Z,88
2023-05-14T11:22:50.130Z,60
2023-05-14T11:27:55.149Z,40
2023-05-14T11:33:01.231Z,40
2023-05-14T11:38:07.318Z,56
2023-05-14T11:43:13.410Z,84
2023-05-14T11:48:19.523Z,120
2023-05-14T11:53:25.654Z,156
2023-05-14T11:58:31.682Z,112
2023-05-14T12:03:36.822Z,72
2023-05-14T12:08:42.874Z,72
2023-05-14T12:13:48.985Z,92
2023-05-14T12:18:55.057Z,96
2023-05-14T12:24:01.182Z,112
2023-05-14T12:29:07.237Z,128
2023-05-14T12:34:13.334Z,152
2023-05-14T12:39:19.504Z,180
2023-05-14T12:44:25.646Z,192
2023-05-14T12:49:31.600Z,172
2023-05-14T12:54:37.697Z,160
2023-05-14T12:59:43.820Z,172
2023-05-14T13:04:49.862Z,168
2023-05-14T13:09:56.029Z,164
2023-05-14T13:15:01.085Z,108
2023-05-14T13:20:07.183Z,76
2023-05-14T13:25:13.266Z,52
2023-05-14T13:30:19.340Z,52
2023-05-14T13:35:25.486Z,68
2023-05-14T13:40:31.520Z,112
2023-05-14T13:45:37.669Z,192
2023-05-14T13:50:43.697Z,72
2023-05-14T13:55:48.966Z,44
2023-05-14T14:00:55.018Z,32
2023-05-14T14:06:01.086Z,36
2023-05-14T14:11:07.067Z,40
2023-05-14T14:16:13.252Z,44
2023-05-14T14:21:19.447Z,48
2023-05-14T14:26:25.464Z,60
2023-05-14T14:31:31.597Z,64
2023-05-14T14:36:37.580Z,64
2023-05-14T14:41:43.656Z,60
2023-05-14T14:46:49.714Z,68
2023-05-14T14:51:55.869Z,80
2023-05-14T14:57:01.969Z,92
2023-05-14T15:02:07.968Z,108
2023-05-14T15:07:14.067Z,128
2023-05-14T15:12:20.162Z,148
2023-05-14T15:17:26.250Z,160
2023-05-14T15:22:32.342Z,140
2023-05-14T15:27:38.422Z,152
2023-05-14T15:32:44.523Z,152
2023-05-14T15:37:50.604Z,188
2023-05-14T15:42:56.696Z,304
2023-05-14T15:48:01.815Z,184
2023-05-14T15:53:07.957Z,188
2023-05-14T15:58:14.001Z,272
2023-05-14T16:03:20.079Z,132
2023-05-14T16:08:26.361Z,108
2023-05-14T16:13:32.248Z,100
2023-05-14T16:18:38.378Z,92
2023-05-14T16:23:44.437Z,88
2023-05-14T16:28:49.535Z,88
2023-05-14T16:33:55.640Z,84
2023-05-14T16:39:01.717Z,96
2023-05-14T16:44:07.816Z,116
2023-05-14T16:49:13.901Z,112
2023-05-14T16:54:19.975Z,100
2023-05-14T16:59:26.167Z,96
2023-05-14T17:04:32.149Z,88
2023-05-14T17:09:38.243Z,76
2023-05-14T17:14:44.351Z,64
2023-05-14T17:19:50.482Z,60
2023-05-14T17:24:56.547Z,52
2023-05-14T17:30:01.613Z,56
2023-05-14T17:35:07.770Z,52
2023-05-14T17:40:13.855Z,44
2023-05-14T17:45:19.903Z,32
2023-05-14T17:50:25.989Z,32
2023-05-14T17:55:32.148Z,24
2023-05-14T18:00:38.202Z,20
2023-05-14T18:05:44.288Z,16
2023-05-14T18:10:49.372Z,8
2023-05-14T18:15:55.483Z,12
2023-05-14T18:21:01.565Z,8
2023-05-14T18:26:07.674Z,8
2023-05-14T18:31:13.738Z,4
2023-05-14T18:36:19.827Z,4
2023-05-14T18:41:25.914Z,0
2023-05-14T18:46:32.016Z,4
2023-05-14T18:51:38.095Z,0
2023-05-14T18:56:44.189Z,0
2023-05-14T19:01:50.300Z,0
2023-05-14T19:06:56.389Z,0
2023-05-14T19:12:01.486Z,0
2023-05-14T19:17:07.765Z,0
2023-05-14T19:22:13.847Z,0
2023-05-14T19:27:19.879Z,0
2023-05-14T19:32:25.850Z,0
2023-05-14T19:37:32.100Z,0
2023-05-14T19:42:37.223Z,0
2023-05-14T19:47:43.374Z,0
2023-05-14T19:52:49.289Z,0
2023-05-14T19:57:55.317Z,0
2023-05-14T20:03:01.572Z,0
2023-05-14T20:08:07.625Z,0
2023-05-14T20:13:13.730Z,0
2023-05-14T20:18:19.668Z,0
2023-05-14T20:23:25.757Z,0
2023-05-14T20:28:31.974Z,0
2023-05-14T20:33:38.107Z,0
2023-05-14T20:38:44.218Z,0
2023-05-14T20:43:50.285Z,0
2023-05-14T20:48:56.363Z,0
2023-05-14T20:54:01.520Z,0
2023-05-14T20:59:07.570Z,0
2023-05-14T21:04:13.729Z,0
2023-05-14T21:09:19.752Z,0
2023-05-14T21:14:25.744Z,0
2023-05-14T21:19:31.967Z,0
2023-05-14T21:24:37.052Z,0
2023-05-14T21:29:43.148Z,0
2023-05-14T21:34:49.230Z,0
2023-05-14T21:39:55.337Z,0
2023-05-14T21:45:01.375Z,0
2023-05-14T21:50:07.435Z,0
2023-05-14T21:55:13.526Z,0
2023-05-14T22:00:19.507Z,0
2023-05-14T22:05:25.760Z,0
2023-05-14T22:10:31.693Z,0
2023-05-14T22:15:37.934Z,0
2023-05-14T22:20:43.877Z,0
2023-05-14T22:25:50.093Z,0
2023-05-14T22:30:56.117Z,0
2023-05-14T22:36:01.330Z,0
2023-05-14T22:41:07.236Z,0
2023-05-14T22:46:13.324Z,0
2023-05-14T22:51:19.414Z,0
2023-05-14T22:56:25.604Z,0
2023-05-14T23:01:31.605Z,0
2023-05-14T23:06:37.709Z,0
2023-05-14T23:11:43.821Z,0
2023-05-14T23:16:49.995Z,0
2023-05-14T23:21:55.953Z,0
2023-05-14T23:27:02.090Z,0
2023-05-14T23:32:08.127Z,0
2023-05-14T23:37:14.256Z,0
2023-05-14T23:42:20.327Z,0
2023-05-14T23:47:26.426Z,0
2023-05-14T23:52:32.509Z,0
2023-05-14T23:57:37.598Z,0
